Dades meteomassalio
Diari Summary for Maig 10, 2017 Units:  Metric    English   Both
« Previous Day
Next Day »
Diari Semanal Mensual Anual Personalitzat
  Maxima: Minima: Mijana:
Temperatura: 24.3 °C 11.9 °C 17.6 °C
Rosada: 14.8 °C 10.3 °C 12.7 °C
Humitat: 92 % 47 % 75 %
Velocitat del vent: 31.5 km/h 0.0 km/h 10.5 km/h
Racha vent: 31.5 km/h - -
Vent:- - SE
Pressio: 1007.0 hPa 1000.6 hPa -
Pluja: 7.1 mm    
Historical Graphs
 
 
Tabular Data for Maig 10, 2017
Time Temperature Dew Point Pressure Wind Wind Speed Wind Gust Humidity Rainfall Rate (Hourly) solar Conditions
00:01 14.9 °C 13.2 °C 1007.0 hPa ENE 6.4 km/h 6.4 km/h 89 % 0.0 mm 0.0 W/m2 RA
00:06 14.9 °C 13.2 °C 1007.0 hPa ENE 1.6 km/h 2.6 km/h 89 % 0.0 mm 0.0 W/m2 CLR
00:12 14.9 °C 13.1 °C 1006.7 hPa East 9.3 km/h 9.3 km/h 89 % 0.0 mm 0.0 W/m2 CLR
00:17 14.9 °C 13.1 °C 1006.3 hPa ESE 11.1 km/h 11.1 km/h 89 % 0.0 mm 0.0 W/m2 CLR
00:22 14.9 °C 13.1 °C 1006.7 hPa ESE 5.6 km/h 5.6 km/h 89 % 0.0 mm 0.0 W/m2 CLR
00:27 14.8 °C 12.9 °C 1006.7 hPa Calm     88 % 0.0 mm 0.0 W/m2 CLR
00:32 14.8 °C 12.8 °C 1006.7 hPa Calm     88 % 0.0 mm 0.0 W/m2 CLR
00:37 14.7 °C 12.8 °C 1006.7 hPa Calm     88 % 0.0 mm 0.0 W/m2 CLR
00:42 14.7 °C 12.7 °C 1006.3 hPa Calm     88 % 0.0 mm 0.0 W/m2 CLR
00:47 14.6 °C 12.8 °C 1006.3 hPa Calm     89 % 0.0 mm 0.0 W/m2 CLR
00:52 14.6 °C 12.8 °C 1006.3 hPa Calm     89 % 0.0 mm 0.0 W/m2 CLR
00:57 14.6 °C 12.8 °C 1006.3 hPa Calm     89 % 0.0 mm 0.0 W/m2 CLR
01:02 14.7 °C 12.7 °C 1006.3 hPa Calm     88 % 0.0 mm 0.0 W/m2 CLR
01:07 14.7 °C 12.7 °C 1006.3 hPa SSW 4.8 km/h 4.8 km/h 88 % 0.0 mm 0.0 W/m2 CLR
01:12 14.6 °C 12.4 °C 1006.3 hPa Calm     87 % 0.0 mm 0.0 W/m2 CLR
01:17 14.6 °C 12.4 °C 1006.3 hPa SSE 13.0 km/h 13.0 km/h 87 % 0.0 mm 0.0 W/m2 CLR
01:22 14.9 °C 12.3 °C 1006.3 hPa SSE 18.5 km/h 18.5 km/h 84 % 0.3 mm 0.0 W/m2 RA
01:27 15.2 °C 12.1 °C 1006.3 hPa SSE 22.2 km/h 22.2 km/h 82 % 0.3 mm 0.0 W/m2
01:32 15.3 °C 12.1 °C 1006.3 hPa SSE 17.7 km/h 17.7 km/h 81 % 0.3 mm 0.0 W/m2 CLR
01:37 15.3 °C 11.8 °C 1006.0 hPa SSE 24.1 km/h 24.1 km/h 80 % 0.3 mm 0.0 W/m2 CLR
01:42 15.5 °C 11.9 °C 1006.0 hPa SE 14.8 km/h 14.8 km/h 79 % 0.3 mm 0.0 W/m2 CLR
01:47 15.6 °C 11.7 °C 1006.0 hPa SSE 18.5 km/h 18.5 km/h 78 % 0.3 mm 0.0 W/m2 CLR
01:52 15.7 °C 11.4 °C 1005.6 hPa SSE 16.7 km/h 16.7 km/h 76 % 0.3 mm 0.0 W/m2 CLR
01:57 15.7 °C 11.4 °C 1005.6 hPa SSE 13.0 km/h 13.0 km/h 76 % 0.3 mm 0.0 W/m2 CLR
02:02 15.6 °C 11.4 °C 1005.6 hPa SSE 11.1 km/h 11.1 km/h 76 % 0.3 mm 0.0 W/m2 CLR
02:07 15.6 °C 11.6 °C 1005.6 hPa SSE 7.4 km/h 7.4 km/h 77 % 0.3 mm 0.0 W/m2 CLR
02:12 15.5 °C 11.5 °C 1005.6 hPa SE 9.3 km/h 9.3 km/h 77 % 0.3 mm 0.0 W/m2 CLR
02:17 15.3 °C 11.3 °C 1005.6 hPa SSE 7.4 km/h 7.4 km/h 77 % 0.3 mm 0.0 W/m2 CLR
02:22 15.2 °C 11.4 °C 1005.6 hPa SSE 5.6 km/h 5.6 km/h 78 % 0.0 mm 0.0 W/m2 CLR
02:27 15.2 °C 11.6 °C 1005.3 hPa Calm     79 % 0.0 mm 0.0 W/m2 CLR
02:32 15.1 °C 11.4 °C 1005.3 hPa SSW 5.6 km/h 5.6 km/h 79 % 0.0 mm 0.0 W/m2 CLR
02:37 15.0 °C 11.4 °C 1005.3 hPa South 9.3 km/h 9.3 km/h 79 % 0.0 mm 0.0 W/m2 CLR
02:42 15.0 °C 11.4 °C 1005.0 hPa ESE 7.4 km/h 7.4 km/h 79 % 0.0 mm 0.0 W/m2 CLR
02:47 15.0 °C 11.4 °C 1005.0 hPa SSE 13.0 km/h 13.0 km/h 79 % 0.0 mm 0.0 W/m2 CLR
02:52 15.0 °C 11.2 °C 1005.0 hPa SE 13.0 km/h 13.0 km/h 78 % 0.0 mm 0.0 W/m2 CLR
02:57 15.0 °C 11.2 °C 1005.0 hPa South 11.1 km/h 11.1 km/h 78 % 0.0 mm 0.0 W/m2 CLR
03:02 15.1 °C 11.2 °C 1005.0 hPa South 16.7 km/h 16.7 km/h 78 % 0.0 mm 0.0 W/m2 CLR
03:07 15.1 °C 11.1 °C 1004.6 hPa SSE 7.4 km/h 7.4 km/h 77 % 0.0 mm 0.0 W/m2 CLR
03:12 15.1 °C 11.1 °C 1004.6 hPa SE 8.0 km/h 8.0 km/h 77 % 0.0 mm 0.0 W/m2 CLR
03:17 15.1 °C 10.9 °C 1004.6 hPa ESE 5.6 km/h 5.6 km/h 76 % 0.0 mm 0.0 W/m2 CLR
03:22 15.1 °C 10.9 °C 1004.6 hPa East 3.7 km/h   76 % 0.0 mm 0.0 W/m2 CLR
03:27 15.0 °C 11.0 °C 1004.6 hPa Calm     77 % 0.0 mm 0.0 W/m2 CLR
03:32 14.9 °C 10.9 °C 1004.6 hPa Calm     77 % 0.0 mm 0.0 W/m2 CLR
03:37 14.8 °C 11.1 °C 1004.6 hPa Calm     78 % 0.0 mm 0.0 W/m2 CLR
03:42 14.7 °C 11.1 °C 1004.6 hPa Calm     79 % 0.0 mm 0.0 W/m2 CLR
03:47 14.6 °C 11.0 °C 1004.3 hPa Calm     79 % 0.0 mm 0.0 W/m2 CLR
03:52 14.4 °C 11.1 °C 1004.3 hPa Calm     80 % 0.0 mm 0.0 W/m2 CLR
03:57 14.3 °C 10.9 °C 1004.3 hPa Calm     80 % 0.0 mm 0.0 W/m2 CLR
04:02 14.2 °C 10.8 °C 1004.3 hPa Calm     80 % 0.0 mm 0.0 W/m2 CLR
04:07 14.2 °C 10.6 °C 1004.3 hPa Calm     79 % 0.0 mm 0.0 W/m2 CLR
04:12 14.3 °C 10.7 °C 1004.3 hPa Calm     79 % 0.0 mm 0.0 W/m2 CLR
04:17 14.3 °C 10.7 °C 1004.3 hPa Calm     79 % 0.0 mm 0.0 W/m2 CLR
04:22 14.3 °C 10.9 °C 1004.3 hPa Calm     80 % 0.0 mm 0.0 W/m2 CLR
04:27 14.1 °C 10.7 °C 1003.9 hPa Calm     80 % 0.0 mm 0.0 W/m2 CLR
04:32 14.0 °C 10.8 °C 1003.9 hPa Calm     81 % 0.0 mm 0.0 W/m2 CLR
04:37 13.9 °C 10.9 °C 1003.9 hPa Calm     82 % 0.0 mm 0.0 W/m2 CLR
04:42 13.8 °C 10.8 °C 1003.9 hPa Calm     82 % 0.0 mm 0.0 W/m2 CLR
04:47 13.7 °C 10.9 °C 1003.9 hPa Calm     83 % 0.0 mm 0.0 W/m2 CLR
04:52 13.6 °C 10.8 °C 1003.9 hPa Calm     83 % 0.0 mm 0.0 W/m2 CLR
04:57 13.5 °C 10.7 °C 1003.9 hPa Calm     83 % 0.0 mm 0.0 W/m2 CLR
05:02 13.3 °C 10.7 °C 1003.9 hPa Calm     84 % 0.0 mm 0.0 W/m2 CLR
05:07 13.3 °C 10.8 °C 1003.9 hPa Calm     85 % 0.0 mm 0.0 W/m2 CLR
05:12 13.2 °C 10.7 °C 1003.9 hPa Calm     85 % 0.0 mm 0.0 W/m2 CLR
05:17 13.1 °C 10.7 °C 1003.9 hPa Calm     85 % 0.0 mm 0.0 W/m2 CLR
05:22 13.1 °C 10.8 °C 1003.9 hPa Calm     86 % 0.0 mm 0.0 W/m2 CLR
05:27 12.9 °C 10.7 °C 1003.6 hPa Calm     86 % 0.0 mm 0.0 W/m2 CLR
05:32 12.9 °C 10.7 °C 1003.6 hPa Calm     86 % 0.0 mm 0.0 W/m2 CLR
05:37 12.8 °C 10.7 °C 1003.9 hPa Calm     87 % 0.0 mm 0.0 W/m2 CLR
05:42 12.8 °C 10.7 °C 1003.9 hPa Calm     87 % 0.0 mm 0.0 W/m2 CLR
05:47 12.7 °C 10.6 °C 1003.9 hPa Calm     87 % 0.0 mm 0.0 W/m2 CLR
05:52 12.6 °C 10.5 °C 1003.9 hPa Calm     87 % 0.0 mm 0.0 W/m2 CLR
05:57 12.6 °C 10.7 °C 1003.9 hPa Calm     88 % 0.0 mm 0.0 W/m2 CLR
06:02 12.6 °C 10.6 °C 1003.9 hPa Calm     88 % 0.0 mm 0.0 W/m2 CLR
06:07 12.5 °C 10.6 °C 1003.9 hPa Calm     88 % 0.0 mm 0.0 W/m2 CLR
06:12 12.4 °C 10.4 °C 1003.9 hPa Calm     88 % 0.0 mm 0.0 W/m2 CLR
06:17 12.3 °C 10.4 °C 1003.9 hPa Calm     88 % 0.0 mm 0.0 W/m2 CLR
06:22 12.3 °C 10.5 °C 1003.6 hPa Calm     89 % 0.0 mm 0.0 W/m2 CLR
06:27 12.2 °C 10.4 °C 1003.9 hPa Calm     89 % 0.0 mm 0.0 W/m2 CLR
06:32 12.2 °C 10.4 °C 1003.9 hPa Calm     89 % 0.0 mm 0.0 W/m2 CLR
06:37 12.2 °C 10.4 °C 1003.9 hPa Calm     89 % 0.0 mm 0.0 W/m2 OVC
06:42 12.1 °C 10.3 °C 1003.9 hPa Calm     89 % 0.0 mm 0.0 W/m2 OVC
06:47 12.1 °C 10.5 °C 1003.9 hPa Calm     90 % 0.0 mm 0.0 W/m2 OVC
06:52 12.1 °C 10.5 °C 1003.9 hPa Calm     90 % 0.0 mm 0.0 W/m2 OVC
06:57 12.1 °C 10.4 °C 1003.9 hPa Calm     90 % 0.0 mm 0.0 W/m2 OVC
07:02 12.0 °C 10.4 °C 1003.9 hPa Calm     90 % 0.0 mm 0.0 W/m2 OVC
07:07 12.0 °C 10.4 °C 1003.9 hPa Calm     90 % 0.0 mm 5.0 W/m2 OVC
07:12 12.0 °C 10.4 °C 1003.9 hPa Calm     90 % 0.0 mm 9.0 W/m2 BKN
07:17 12.0 °C 10.4 °C 1003.9 hPa Calm     90 % 0.0 mm 14.0 W/m2 BKN
07:22 12.0 °C 10.4 °C 1003.9 hPa Calm     90 % 0.0 mm 18.0 W/m2 BKN
07:27 12.0 °C 10.4 °C 1003.9 hPa Calm     90 % 0.0 mm 25.0 W/m2 BKN
07:33 11.9 °C 10.3 °C 1004.3 hPa Calm     90 % 0.0 mm 30.0 W/m2 BKN
07:38 11.9 °C 10.3 °C 1004.3 hPa Calm     90 % 0.0 mm 37.0 W/m2 BKN
07:43 12.0 °C 10.4 °C 1004.3 hPa Calm     90 % 0.0 mm 42.0 W/m2 BKN
07:48 12.1 °C 10.7 °C 1004.3 hPa Calm     91 % 0.0 mm 51.0 W/m2 BKN
07:53 12.2 °C 10.6 °C 1004.3 hPa Calm     90 % 0.0 mm 62.0 W/m2 SCT
07:58 12.3 °C 10.7 °C 1004.3 hPa Calm     90 % 0.0 mm 67.0 W/m2 SCT
08:03 12.4 °C 10.8 °C 1004.3 hPa Calm     90 % 0.0 mm 76.0 W/m2 FEW
08:08 12.5 °C 11.1 °C 1004.3 hPa Calm     91 % 0.0 mm 77.0 W/m2 FEW
08:13 12.7 °C 11.2 °C 1004.6 hPa Calm     91 % 0.0 mm 90.0 W/m2 FEW
08:18 12.8 °C 11.4 °C 1004.6 hPa Calm     91 % 0.0 mm 100.0 W/m2 CLR
08:23 12.9 °C 11.5 °C 1004.6 hPa Calm     91 % 0.0 mm 107.0 W/m2 CLR
08:28 13.1 °C 11.7 °C 1004.6 hPa Calm     91 % 0.0 mm 109.0 W/m2 CLR
08:33 13.2 °C 11.7 °C 1004.6 hPa Calm     91 % 0.0 mm 118.0 W/m2 CLR
08:38 13.3 °C 11.8 °C 1004.6 hPa Calm     91 % 0.0 mm 125.0 W/m2 CLR
08:43 13.4 °C 11.9 °C 1004.6 hPa Calm     91 % 0.0 mm 135.0 W/m2 CLR
08:48 13.4 °C 12.2 °C 1004.3 hPa Calm     92 % 0.0 mm 142.0 W/m2 CLR
08:53 13.4 °C 12.2 °C 1004.6 hPa SW 3.7 km/h 3.7 km/h 92 % 0.0 mm 155.0 W/m2 CLR
08:58 13.6 °C 12.3 °C 1004.6 hPa Calm     92 % 0.0 mm 162.0 W/m2 CLR
09:03 13.6 °C 12.3 °C 1004.6 hPa Calm     92 % 0.0 mm 169.0 W/m2 CLR
09:08 13.7 °C 12.4 °C 1004.6 hPa Calm     92 % 0.0 mm 167.0 W/m2 CLR
09:13 13.8 °C 12.6 °C 1004.6 hPa Calm     92 % 0.0 mm 193.0 W/m2 CLR
09:18 14.0 °C 12.7 °C 1004.6 hPa Calm     92 % 0.0 mm 174.0 W/m2 CLR
09:23 14.1 °C 12.7 °C 1004.6 hPa Calm     91 % 0.0 mm 229.0 W/m2 CLR
09:28 14.3 °C 12.8 °C 1004.6 hPa Calm     91 % 0.0 mm 348.0 W/m2 CLR
09:33 14.6 °C 13.1 °C 1004.6 hPa Calm     91 % 0.0 mm 220.0 W/m2 CLR
09:38 14.8 °C 13.4 °C 1004.6 hPa Calm     91 % 0.0 mm 200.0 W/m2 CLR
09:43 15.3 °C 13.8 °C 1004.6 hPa Calm     91 % 0.0 mm 406.0 W/m2 CLR
09:48 15.4 °C 13.8 °C 1004.6 hPa Calm     90 % 0.0 mm 432.0 W/m2 CLR
09:53 15.8 °C 14.0 °C 1004.3 hPa Calm     89 % 0.0 mm 436.0 W/m2 CLR
09:58 16.1 °C 13.9 °C 1004.3 hPa Calm     87 % 0.0 mm 459.0 W/m2 CLR
10:03 16.3 °C 13.4 °C 1004.3 hPa Calm     83 % 0.0 mm 524.0 W/m2 CLR
10:08 16.6 °C 13.4 °C 1004.6 hPa Calm     82 % 0.0 mm 555.0 W/m2 CLR
10:13 16.8 °C 13.3 °C 1004.6 hPa Calm     80 % 0.0 mm 601.0 W/m2 CLR
10:18 17.3 °C 13.6 °C 1004.6 hPa Calm     79 % 0.0 mm 531.0 W/m2 CLR
10:23 17.7 °C 14.0 °C 1004.6 hPa Calm     79 % 0.0 mm 649.0 W/m2 CLR
10:28 18.0 °C 13.9 °C 1004.3 hPa Calm     77 % 0.0 mm 701.0 W/m2 CLR
10:33 18.2 °C 13.7 °C 1004.3 hPa Calm     75 % 0.0 mm 717.0 W/m2 CLR
10:38 18.6 °C 14.2 °C 1004.3 hPa ENE 11.1 km/h 11.1 km/h 76 % 0.0 mm 673.0 W/m2 CLR
10:43 18.9 °C 14.2 °C 1004.3 hPa ENE 8.0 km/h 8.0 km/h 74 % 0.0 mm 751.0 W/m2 CLR
10:48 19.1 °C 14.1 °C 1004.6 hPa ENE 9.3 km/h 9.3 km/h 73 % 0.0 mm 431.0 W/m2 CLR
10:53 19.3 °C 14.1 °C 1004.6 hPa Calm     72 % 0.0 mm 482.0 W/m2 CLR
10:58 19.6 °C 13.9 °C 1004.3 hPa NNE 5.6 km/h 5.6 km/h 70 % 0.0 mm 355.0 W/m2 CLR
11:03 19.5 °C 13.9 °C 1004.3 hPa NE 5.6 km/h 5.6 km/h 70 % 0.0 mm 281.0 W/m2 CLR
11:08 19.3 °C 13.7 °C 1004.6 hPa Calm     70 % 0.0 mm 236.0 W/m2 CLR
11:13 19.2 °C 13.8 °C 1004.3 hPa ENE 5.6 km/h 5.6 km/h 71 % 0.0 mm 248.0 W/m2 CLR
11:18 19.1 °C 13.5 °C 1004.3 hPa NE 6.4 km/h 6.4 km/h 70 % 0.0 mm 339.0 W/m2 CLR
11:23 19.1 °C 13.7 °C 1004.3 hPa NNE 5.6 km/h   71 % 0.0 mm 350.0 W/m2 CLR
11:28 19.4 °C 14.0 °C 1004.3 hPa Calm     71 % 0.0 mm 406.0 W/m2 CLR
11:33 19.7 °C 13.9 °C 1004.3 hPa Calm     69 % 0.0 mm 381.0 W/m2 CLR
11:38 19.8 °C 14.0 °C 1004.3 hPa East 1.9 km/h   69 % 0.0 mm 501.0 W/m2 CLR
11:43 20.0 °C 13.7 °C 1004.3 hPa ENE 9.7 km/h 9.7 km/h 67 % 0.0 mm 367.0 W/m2 CLR
11:48 20.1 °C 13.9 °C 1004.3 hPa Calm     68 % 0.0 mm 343.0 W/m2 CLR
11:53 20.2 °C 13.9 °C 1003.9 hPa East 7.4 km/h 7.4 km/h 67 % 0.0 mm 322.0 W/m2 CLR
11:58 20.4 °C 13.7 °C 1003.9 hPa ENE 1.9 km/h 1.9 km/h 65 % 0.0 mm 295.0 W/m2 CLR
12:03 20.3 °C 13.2 °C 1003.9 hPa ENE 5.6 km/h 5.6 km/h 64 % 0.0 mm 255.0 W/m2 CLR
12:08 20.3 °C 13.5 °C 1003.9 hPa Calm     65 % 0.0 mm 260.0 W/m2 CLR
12:13 20.6 °C 13.3 °C 1003.9 hPa Calm     63 % 0.0 mm 963.0 W/m2 CLR
12:18 21.2 °C 13.6 °C 1003.9 hPa Calm     62 % 0.0 mm 935.0 W/m2 CLR
12:23 21.7 °C 13.9 °C 1003.9 hPa ENE 9.7 km/h 9.7 km/h 61 % 0.0 mm 925.0 W/m2 CLR
12:28 22.1 °C 14.4 °C 1003.9 hPa Calm     62 % 0.0 mm 909.0 W/m2 CLR
12:33 22.3 °C 14.2 °C 1003.6 hPa ENE 13.0 km/h 13.0 km/h 60 % 0.0 mm 902.0 W/m2 CLR
12:38 22.6 °C 14.4 °C 1003.6 hPa East 7.4 km/h 7.4 km/h 60 % 0.0 mm 882.0 W/m2 CLR
12:43 23.0 °C 14.3 °C 1003.6 hPa ENE 7.4 km/h 7.4 km/h 58 % 0.0 mm 900.0 W/m2 CLR
12:48 23.2 °C 13.9 °C 1003.6 hPa ESE 6.4 km/h 6.4 km/h 56 % 0.0 mm 896.0 W/m2 CLR
12:53 23.1 °C 13.6 °C 1003.3 hPa East 9.3 km/h 9.3 km/h 55 % 0.0 mm 902.0 W/m2 CLR
12:58 23.4 °C 13.3 °C 1003.3 hPa ENE 11.3 km/h 11.3 km/h 53 % 0.0 mm 932.0 W/m2 CLR
13:03 23.7 °C 13.0 °C 1003.3 hPa ENE 16.7 km/h 16.7 km/h 51 % 0.0 mm 928.0 W/m2 CLR
13:08 23.6 °C 13.2 °C 1003.3 hPa ESE 14.8 km/h 14.8 km/h 52 % 0.0 mm 868.0 W/m2 CLR
13:13 23.7 °C 13.0 °C 1003.3 hPa NE 18.5 km/h 18.5 km/h 51 % 0.0 mm 821.0 W/m2 CLR
13:18 23.9 °C 12.8 °C 1003.3 hPa NE 9.3 km/h 9.3 km/h 50 % 0.0 mm 874.0 W/m2 CLR
13:23 23.9 °C 12.3 °C 1003.3 hPa ENE 14.8 km/h 14.8 km/h 48 % 0.0 mm 949.0 W/m2 CLR
13:28 24.2 °C 12.8 °C 1002.9 hPa North 7.4 km/h 7.4 km/h 49 % 0.0 mm 956.0 W/m2 CLR
13:33 24.3 °C 12.3 °C 1002.9 hPa ENE 7.4 km/h 7.4 km/h 47 % 0.0 mm 937.0 W/m2 CLR
13:38 24.3 °C 12.6 °C 1002.9 hPa ESE 14.8 km/h 14.8 km/h 48 % 0.0 mm 819.0 W/m2 CLR
13:43 24.2 °C 12.2 °C 1002.9 hPa SE 14.8 km/h 14.8 km/h 47 % 0.0 mm 854.0 W/m2 CLR
13:48 23.9 °C 12.3 °C 1002.6 hPa ESE 11.3 km/h 11.3 km/h 48 % 0.0 mm 758.0 W/m2 CLR
13:53 23.9 °C 13.2 °C 1002.6 hPa East 13.0 km/h 13.0 km/h 51 % 0.0 mm 768.0 W/m2 CLR
13:58 24.0 °C 13.6 °C 1002.6 hPa SE 18.5 km/h 18.5 km/h 52 % 0.0 mm 888.0 W/m2 CLR
14:03 23.5 °C 12.8 °C 1002.6 hPa East 24.1 km/h 24.1 km/h 51 % 0.0 mm 816.0 W/m2 CLR
14:08 23.4 °C 13.0 °C 1002.6 hPa ESE 18.5 km/h 18.5 km/h 52 % 0.0 mm 863.0 W/m2 CLR
14:13 23.2 °C 12.8 °C 1002.6 hPa ESE 20.4 km/h 20.4 km/h 52 % 0.0 mm 863.0 W/m2 CLR
14:18 23.3 °C 13.4 °C 1002.6 hPa ESE 18.5 km/h 18.5 km/h 54 % 0.0 mm 1095.0 W/m2 CLR
14:23 23.5 °C 13.1 °C 1002.6 hPa ESE 22.2 km/h 22.2 km/h 52 % 0.0 mm 979.0 W/m2 CLR
14:28 23.6 °C 13.4 °C 1002.6 hPa ESE 20.4 km/h 20.4 km/h 53 % 0.0 mm 997.0 W/m2 CLR
14:33 23.4 °C 13.3 °C 1002.6 hPa SE 18.5 km/h 18.5 km/h 53 % 0.0 mm 937.0 W/m2 CLR
14:38 23.7 °C 13.3 °C 1002.6 hPa East 18.5 km/h 18.5 km/h 52 % 0.0 mm 925.0 W/m2 CLR
14:43 23.4 °C 13.3 °C 1002.6 hPa SE 24.1 km/h 24.1 km/h 53 % 0.0 mm 937.0 W/m2 CLR
14:48 23.4 °C 13.0 °C 1002.6 hPa ESE 24.1 km/h 24.1 km/h 52 % 0.0 mm 889.0 W/m2 CLR
14:53 23.1 °C 13.6 °C 1002.6 hPa East 18.5 km/h 18.5 km/h 55 % 0.0 mm 889.0 W/m2 CLR
14:58 23.0 °C 13.2 °C 1002.6 hPa SE 20.4 km/h 20.4 km/h 54 % 0.0 mm 297.0 W/m2 CLR
15:03 22.4 °C 13.2 °C 1002.6 hPa SE 24.1 km/h 24.1 km/h 56 % 0.0 mm 272.0 W/m2 CLR
15:08 21.8 °C 13.4 °C 1002.6 hPa SSE 29.6 km/h 29.6 km/h 59 % 0.0 mm 332.0 W/m2 CLR
15:13 21.3 °C 13.5 °C 1002.6 hPa ESE 27.8 km/h 27.8 km/h 61 % 0.0 mm 304.0 W/m2 CLR
15:18 21.1 °C 13.6 °C 1002.6 hPa SSE 24.1 km/h 24.1 km/h 62 % 0.0 mm 322.0 W/m2 CLR
15:19 21.1 °C 14.1 °C 1002.6 hPa SSE 22.2 km/h 22.2 km/h 64 % 0.0 mm 322.0 W/m2 CLR
15:24 21.0 °C 14.2 °C 1002.6 hPa SSE 22.2 km/h 22.2 km/h 65 % 0.0 mm 888.0 W/m2 CLR
15:29 21.1 °C 14.3 °C 1002.6 hPa South 24.1 km/h 24.1 km/h 65 % 0.0 mm 800.0 W/m2 CLR
15:34 20.9 °C 13.9 °C 1002.6 hPa SSE 29.0 km/h 29.0 km/h 64 % 0.0 mm 947.0 W/m2 CLR
15:39 21.1 °C 14.0 °C 1002.3 hPa SE 27.8 km/h 27.8 km/h 64 % 0.0 mm 881.0 W/m2 CLR
15:44 21.1 °C 14.0 °C 1002.3 hPa SE 20.4 km/h 20.4 km/h 64 % 0.0 mm 844.0 W/m2 CLR
15:49 21.5 °C 13.7 °C 1002.3 hPa SE 29.6 km/h 29.6 km/h 61 % 0.0 mm 861.0 W/m2 CLR
15:54 21.4 °C 13.3 °C 1001.9 hPa SSE 31.5 km/h 31.5 km/h 60 % 0.0 mm 613.0 W/m2 CLR
15:59 21.7 °C 13.8 °C 1001.9 hPa SE 22.2 km/h 22.2 km/h 61 % 0.0 mm 847.0 W/m2 CLR
16:04 21.6 °C 13.4 °C 1001.9 hPa SE 24.1 km/h 24.1 km/h 60 % 0.0 mm 847.0 W/m2 CLR
16:09 21.6 °C 13.3 °C 1001.9 hPa SSE 22.5 km/h 22.5 km/h 59 % 0.0 mm 863.0 W/m2 CLR
16:14 21.6 °C 13.7 °C 1001.9 hPa ESE 25.9 km/h 25.9 km/h 61 % 0.0 mm 789.0 W/m2 CLR
16:19 21.8 °C 13.9 °C 1001.6 hPa ESE 25.9 km/h 25.9 km/h 61 % 0.0 mm 773.0 W/m2 CLR
16:24 22.0 °C 13.6 °C 1001.6 hPa SSE 19.3 km/h 19.3 km/h 59 % 0.0 mm 766.0 W/m2 CLR
16:29 22.3 °C 13.3 °C 1001.6 hPa SE 20.9 km/h 20.9 km/h 57 % 0.0 mm 758.0 W/m2 CLR
16:34 22.2 °C 13.0 °C 1001.6 hPa ESE 27.8 km/h 27.8 km/h 56 % 0.0 mm 751.0 W/m2 CLR
16:39 22.2 °C 13.2 °C 1001.6 hPa SE 25.7 km/h 25.7 km/h 57 % 0.0 mm 766.0 W/m2 CLR
16:44 22.1 °C 13.2 °C 1001.6 hPa ESE 20.9 km/h 20.9 km/h 57 % 0.0 mm 759.0 W/m2 CLR
16:49 22.4 °C 12.9 °C 1001.6 hPa SE 20.4 km/h 20.4 km/h 55 % 0.0 mm 742.0 W/m2 CLR
16:54 22.8 °C 12.7 °C 1001.6 hPa SE 24.1 km/h 24.1 km/h 53 % 0.0 mm 766.0 W/m2 CLR
16:59 22.3 °C 12.6 °C 1001.6 hPa SE 22.2 km/h 22.2 km/h 54 % 0.0 mm 364.0 W/m2 CLR
17:04 22.2 °C 12.2 °C 1001.2 hPa SE 27.8 km/h 27.8 km/h 53 % 0.0 mm 292.0 W/m2 CLR
17:09 22.2 °C 12.4 °C 1001.2 hPa SE 24.1 km/h 24.1 km/h 54 % 0.0 mm 362.0 W/m2 CLR
17:14 22.2 °C 12.4 °C 1001.2 hPa SSE 27.8 km/h 27.8 km/h 54 % 0.0 mm 336.0 W/m2 CLR
17:19 22.5 °C 12.7 °C 1001.2 hPa SSE 25.9 km/h 25.9 km/h 54 % 0.0 mm 689.0 W/m2 CLR
17:24 22.9 °C 12.8 °C 1000.9 hPa SE 16.7 km/h 16.7 km/h 53 % 0.0 mm 687.0 W/m2 CLR
17:29 23.3 °C 12.6 °C 1000.9 hPa SE 25.9 km/h 25.9 km/h 51 % 0.0 mm 628.0 W/m2 CLR
17:34 23.3 °C 12.0 °C 1000.9 hPa ESE 27.8 km/h 27.8 km/h 49 % 0.0 mm 601.0 W/m2 CLR
17:39 23.1 °C 12.1 °C 1000.9 hPa SSE 24.1 km/h 24.1 km/h 50 % 0.0 mm 127.0 W/m2 CLR
17:44 23.2 °C 12.2 °C 1000.9 hPa SE 18.5 km/h 18.5 km/h 50 % 0.0 mm 601.0 W/m2 CLR
17:49 23.4 °C 12.4 °C 1000.9 hPa South 16.7 km/h 16.7 km/h 50 % 0.0 mm 582.0 W/m2 CLR
17:54 23.4 °C 12.1 °C 1000.9 hPa SE 29.6 km/h 29.6 km/h 49 % 0.0 mm 547.0 W/m2 CLR
17:59 23.3 °C 11.7 °C 1000.6 hPa East 31.5 km/h 31.5 km/h 48 % 0.0 mm 503.0 W/m2 CLR
18:04 23.2 °C 11.6 °C 1000.6 hPa South 24.1 km/h 24.1 km/h 48 % 0.0 mm 485.0 W/m2 CLR
18:09 23.3 °C 12.3 °C 1000.6 hPa SE 20.4 km/h 20.4 km/h 50 % 0.0 mm 473.0 W/m2 CLR
18:14 23.1 °C 12.1 °C 1000.6 hPa SSE 20.4 km/h 20.4 km/h 50 % 0.0 mm 457.0 W/m2 CLR
18:19 23.1 °C 11.8 °C 1000.6 hPa SE 31.5 km/h 31.5 km/h 49 % 0.0 mm 441.0 W/m2 CLR
18:24 23.1 °C 12.4 °C 1000.6 hPa SE 22.2 km/h 22.2 km/h 51 % 0.0 mm 425.0 W/m2 CLR
18:29 23.1 °C 12.7 °C 1000.6 hPa SSE 24.1 km/h 24.1 km/h 52 % 0.0 mm 438.0 W/m2 CLR
18:34 22.9 °C 12.5 °C 1000.6 hPa SSE 16.7 km/h 16.7 km/h 52 % 0.0 mm 239.0 W/m2 CLR
18:39 22.6 °C 12.5 °C 1000.6 hPa South 24.1 km/h 24.1 km/h 53 % 0.0 mm 160.0 W/m2 CLR
18:44 22.1 °C 12.7 °C 1000.6 hPa South 29.6 km/h 29.6 km/h 55 % 0.0 mm 151.0 W/m2 CLR
18:49 21.9 °C 12.7 °C 1000.6 hPa South 22.2 km/h 22.2 km/h 56 % 0.0 mm 118.0 W/m2 CLR
18:54 21.7 °C 13.1 °C 1000.6 hPa South 18.5 km/h 18.5 km/h 58 % 0.0 mm 98.0 W/m2 CLR
18:59 21.3 °C 13.0 °C 1000.6 hPa SSE 22.2 km/h 22.2 km/h 59 % 0.0 mm 90.0 W/m2 CLR
19:04 21.1 °C 13.2 °C 1000.6 hPa SSW 20.4 km/h 20.4 km/h 61 % 0.0 mm 72.0 W/m2 CLR
19:09 20.7 °C 13.4 °C 1000.9 hPa SSE 27.8 km/h 27.8 km/h 63 % 0.0 mm 56.0 W/m2 FEW
19:14 20.3 °C 13.6 °C 1000.9 hPa SSE 29.6 km/h 29.6 km/h 65 % 0.0 mm 39.0 W/m2 SCT
19:19 20.1 °C 13.6 °C 1000.9 hPa SSE 29.6 km/h 29.6 km/h 66 % 0.0 mm 21.0 W/m2 BKN
19:24 19.9 °C 13.6 °C 1000.9 hPa South 18.5 km/h 18.5 km/h 67 % 0.0 mm 14.0 W/m2 BKN
19:29 19.7 °C 13.7 °C 1000.9 hPa SSE 18.5 km/h 18.5 km/h 68 % 0.0 mm 9.0 W/m2 BKN
19:34 19.5 °C 13.9 °C 1001.2 hPa South 16.7 km/h 16.7 km/h 70 % 0.0 mm 7.0 W/m2 BKN
19:39 19.3 °C 14.2 °C 1001.2 hPa South 18.5 km/h 18.5 km/h 72 % 0.0 mm 7.0 W/m2 BKN
19:44 19.1 °C 14.4 °C 1001.6 hPa Calm     74 % 0.3 mm 7.0 W/m2 RA
19:49 18.8 °C 14.5 °C 1001.9 hPa SSW 7.4 km/h 7.4 km/h 76 % 1.0 mm 9.0 W/m2 RA
19:54 18.5 °C 14.8 °C 1001.9 hPa Calm     79 % 2.5 mm 14.0 W/m2 RA
19:59 18.1 °C 14.6 °C 1001.6 hPa East 3.7 km/h 3.7 km/h 80 % 3.6 mm 21.0 W/m2 RA
20:04 17.6 °C 14.7 °C 1001.6 hPa East 11.1 km/h 11.1 km/h 83 % 4.8 mm 28.0 W/m2 RA
20:09 17.3 °C 14.7 °C 1001.6 hPa SE 8.0 km/h 8.0 km/h 85 % 4.8 mm 28.0 W/m2 BKN
20:15 17.1 °C 14.7 °C 1001.2 hPa SE 11.3 km/h 11.3 km/h 86 % 4.8 mm 21.0 W/m2 BKN
20:20 17.2 °C 14.6 °C 1001.2 hPa SE 14.8 km/h 14.8 km/h 85 % 4.8 mm 16.0 W/m2 BKN
20:25 17.3 °C 14.7 °C 1001.2 hPa SE 16.7 km/h 16.7 km/h 85 % 4.8 mm 21.0 W/m2 BKN
20:30 17.2 °C 14.8 °C 1001.2 hPa SE 17.7 km/h 17.7 km/h 86 % 4.8 mm 30.0 W/m2 BKN
20:35 17.3 °C 14.4 °C 1001.2 hPa SE 20.4 km/h 20.4 km/h 83 % 4.8 mm 21.0 W/m2 BKN
20:40 17.4 °C 14.3 °C 1001.2 hPa SSE 22.2 km/h 22.2 km/h 82 % 4.8 mm 11.0 W/m2 BKN
20:45 17.4 °C 14.2 °C 1001.2 hPa SE 24.1 km/h 24.1 km/h 81 % 4.6 mm 7.0 W/m2 BKN
20:50 17.5 °C 14.2 °C 1001.2 hPa SSE 18.5 km/h 18.5 km/h 81 % 3.8 mm 0.0 W/m2 OVC
20:55 17.5 °C 14.2 °C 1001.2 hPa SSE 18.5 km/h 18.5 km/h 81 % 2.3 mm 0.0 W/m2 OVC
21:00 17.6 °C 14.1 °C 1001.2 hPa SSE 24.1 km/h 24.1 km/h 80 % 1.0 mm 0.0 W/m2 OVC
21:05 17.6 °C 14.1 °C 1001.6 hPa SE 16.7 km/h 16.7 km/h 80 % 0.0 mm 0.0 W/m2 OVC
21:10 17.6 °C 14.1 °C 1001.6 hPa SSW 16.7 km/h 16.7 km/h 80 % 0.0 mm 0.0 W/m2 OVC
21:15 17.5 °C 14.2 °C 1001.9 hPa SSW 16.7 km/h 16.7 km/h 81 % 0.0 mm 0.0 W/m2 OVC
21:20 17.4 °C 14.1 °C 1001.9 hPa SSE 22.2 km/h 22.2 km/h 81 % 0.3 mm 0.0 W/m2 RA
21:25 17.1 °C 14.2 °C 1001.9 hPa South 18.5 km/h 18.5 km/h 83 % 0.5 mm 0.0 W/m2 RA
21:30 16.8 °C 14.2 °C 1001.9 hPa SSE 18.5 km/h 18.5 km/h 85 % 1.0 mm 0.0 W/m2 RA
21:35 16.6 °C 14.3 °C 1001.9 hPa South 16.7 km/h 16.7 km/h 86 % 1.5 mm 0.0 W/m2 RA
21:40 16.5 °C 14.2 °C 1001.9 hPa South 9.3 km/h 9.3 km/h 86 % 1.8 mm 0.0 W/m2 RA
21:45 16.4 °C 14.2 °C 1001.6 hPa SE 11.3 km/h 11.3 km/h 87 % 2.0 mm 0.0 W/m2 RA
21:50 16.3 °C 14.2 °C 1001.6 hPa SE 14.8 km/h 14.8 km/h 87 % 2.0 mm 0.0 W/m2
21:55 16.3 °C 14.2 °C 1001.6 hPa SE 16.7 km/h 16.7 km/h 87 % 2.0 mm 0.0 W/m2 CLR
22:00 16.3 °C 14.1 °C 1001.6 hPa SE 14.8 km/h 14.8 km/h 87 % 2.0 mm 0.0 W/m2 CLR
22:01 16.3 °C 14.2 °C 1001.6 hPa South 14.8 km/h 14.8 km/h 87 % 2.0 mm 0.0 W/m2 CLR
22:06 16.3 °C 14.2 °C 1001.6 hPa SE 14.8 km/h 14.8 km/h 87 % 2.0 mm 0.0 W/m2 CLR
22:11 16.3 °C 14.2 °C 1001.6 hPa SSE 17.7 km/h 17.7 km/h 87 % 2.0 mm 0.0 W/m2 CLR
22:16 16.4 °C 14.4 °C 1001.6 hPa SSE 18.5 km/h 18.5 km/h 88 % 1.8 mm 0.0 W/m2 CLR
22:21 16.4 °C 14.2 °C 1001.6 hPa SSE 16.7 km/h 16.7 km/h 87 % 1.8 mm 0.0 W/m2 CLR
22:26 16.3 °C 14.2 °C 1001.6 hPa SE 18.5 km/h 18.5 km/h 87 % 1.5 mm 0.0 W/m2 CLR
22:31 16.3 °C 14.2 °C 1001.6 hPa SSE 18.5 km/h 18.5 km/h 87 % 1.0 mm 0.0 W/m2 CLR
22:36 16.4 °C 14.2 °C 1001.6 hPa SE 16.7 km/h 16.7 km/h 87 % 0.5 mm 0.0 W/m2 CLR
22:41 16.4 °C 14.2 °C 1001.2 hPa SSE 17.7 km/h 17.7 km/h 87 % 0.3 mm 0.0 W/m2 CLR
22:46 16.4 °C 14.2 °C 1001.6 hPa SSE 16.7 km/h 16.7 km/h 87 % 0.0 mm 0.0 W/m2 CLR
22:51 16.4 °C 14.1 °C 1001.2 hPa SSE 20.4 km/h 20.4 km/h 86 % 0.0 mm 0.0 W/m2 CLR
22:56 16.6 °C 14.0 °C 1001.2 hPa SSE 20.4 km/h 20.4 km/h 85 % 0.0 mm 0.0 W/m2 CLR
23:01 16.7 °C 13.9 °C 1001.6 hPa SSE 22.2 km/h 22.2 km/h 84 % 0.0 mm 0.0 W/m2 CLR
23:06 16.6 °C 14.1 °C 1001.2 hPa SSE 18.5 km/h 18.5 km/h 85 % 0.0 mm 0.0 W/m2 CLR
23:11 16.5 °C 13.9 °C 1001.2 hPa SSE 14.8 km/h 14.8 km/h 85 % 0.0 mm 0.0 W/m2 CLR
23:16 16.4 °C 13.8 °C 1001.2 hPa SE 14.8 km/h 14.8 km/h 85 % 0.0 mm 0.0 W/m2 CLR
23:21 16.3 °C 13.9 °C 1001.2 hPa SE 16.7 km/h 16.7 km/h 86 % 0.0 mm 0.0 W/m2 CLR
23:26 16.2 °C 13.9 °C 1001.2 hPa ESE 13.0 km/h 13.0 km/h 86 % 0.0 mm 0.0 W/m2 CLR
23:31 16.2 °C 13.8 °C 1000.9 hPa ESE 8.0 km/h 8.0 km/h 86 % 0.0 mm 0.0 W/m2 CLR
23:36 16.2 °C 13.8 °C 1000.9 hPa ESE 11.1 km/h 11.1 km/h 86 % 0.0 mm 0.0 W/m2 CLR
23:41 16.2 °C 13.8 °C 1000.9 hPa SSE 11.1 km/h 11.1 km/h 86 % 0.0 mm 0.0 W/m2 CLR
23:47 16.2 °C 13.9 °C 1000.9 hPa ESE 5.6 km/h 5.6 km/h 86 % 0.0 mm 0.0 W/m2 CLR
23:52 16.2 °C 13.7 °C 1000.9 hPa Calm     85 % 0.0 mm 0.0 W/m2 CLR
23:57 16.3 °C 13.8 °C 1000.9 hPa Calm     85 % 0.0 mm 0.0 W/m2 CLR
Lo Temps de Massalio
Compliments of Weather Underground - 1.25 mb